<?xml version="1.0" encoding="UTF-8" standalone="no" ?>
<gpx xmlns="http://www.topografix.com/GPX/1/1" xmlns:xsi="http://www.w3.org/2001/XMLSchema-instance" xsi:schemaLocation="http://www.topografix.com/GPX/1/1 http://www.topografix.com/GPX/1/1/gpx.xsd" version="1.1" creator="VisuGPX - https://www.visugpx.com">
  <metadata>
    <name>Autour de Val (petit P)</name>
  </metadata>
  <trk>
    <name><![CDATA[13794249-Autour de Val (petit P)]]></name>
    <trkseg>
      <trkpt lat="45.4434" lon="2.50682">
        <ele>544</ele>
        <time>2021-10-07T15:46:49Z</time>
      </trkpt>
      <trkpt lat="45.44336" lon="2.50682">
        <ele>544</ele>
        <time>2021-10-07T15:46:54Z</time>
      </trkpt>
      <trkpt lat="45.44336" lon="2.5069">
        <ele>545</ele>
        <time>2021-10-07T15:47:02Z</time>
      </trkpt>
      <trkpt lat="45.44323" lon="2.50705">
        <ele>547</ele>
        <time>2021-10-07T15:47:24Z</time>
      </trkpt>
      <trkpt lat="45.44284" lon="2.50737">
        <ele>548</ele>
        <time>2021-10-07T15:48:24Z</time>
      </trkpt>
      <trkpt lat="45.44276" lon="2.50744">
        <ele>548</ele>
        <time>2021-10-07T15:48:37Z</time>
      </trkpt>
      <trkpt lat="45.44273" lon="2.50748">
        <ele>548</ele>
        <time>2021-10-07T15:48:42Z</time>
      </trkpt>
      <trkpt lat="45.44269" lon="2.50751">
        <ele>548</ele>
        <time>2021-10-07T15:48:48Z</time>
      </trkpt>
      <trkpt lat="45.44265" lon="2.50753">
        <ele>548</ele>
        <time>2021-10-07T15:48:54Z</time>
      </trkpt>
      <trkpt lat="45.44263" lon="2.50756">
        <ele>548</ele>
        <time>2021-10-07T15:48:58Z</time>
      </trkpt>
      <trkpt lat="45.44258" lon="2.5076">
        <ele>548</ele>
        <time>2021-10-07T15:49:05Z</time>
      </trkpt>
      <trkpt lat="45.44247" lon="2.5077">
        <ele>549</ele>
        <time>2021-10-07T15:49:23Z</time>
      </trkpt>
      <trkpt lat="45.44236" lon="2.50781">
        <ele>548</ele>
        <time>2021-10-07T15:49:41Z</time>
      </trkpt>
      <trkpt lat="45.44226" lon="2.50791">
        <ele>548</ele>
        <time>2021-10-07T15:49:57Z</time>
      </trkpt>
      <trkpt lat="45.44217" lon="2.50802">
        <ele>548</ele>
        <time>2021-10-07T15:50:13Z</time>
      </trkpt>
      <trkpt lat="45.4421" lon="2.50811">
        <ele>547</ele>
        <time>2021-10-07T15:50:25Z</time>
      </trkpt>
      <trkpt lat="45.44206" lon="2.5082">
        <ele>548</ele>
        <time>2021-10-07T15:50:35Z</time>
      </trkpt>
      <trkpt lat="45.44204" lon="2.50824">
        <ele>548</ele>
        <time>2021-10-07T15:50:40Z</time>
      </trkpt>
      <trkpt lat="45.44202" lon="2.5083">
        <ele>548</ele>
        <time>2021-10-07T15:50:46Z</time>
      </trkpt>
      <trkpt lat="45.44199" lon="2.50838">
        <ele>548</ele>
        <time>2021-10-07T15:50:55Z</time>
      </trkpt>
      <trkpt lat="45.44198" lon="2.50844">
        <ele>549</ele>
        <time>2021-10-07T15:51:01Z</time>
      </trkpt>
      <trkpt lat="45.44196" lon="2.50854">
        <ele>550</ele>
        <time>2021-10-07T15:51:10Z</time>
      </trkpt>
      <trkpt lat="45.44194" lon="2.50865">
        <ele>551</ele>
        <time>2021-10-07T15:51:21Z</time>
      </trkpt>
      <trkpt lat="45.44192" lon="2.50879">
        <ele>552</ele>
        <time>2021-10-07T15:51:34Z</time>
      </trkpt>
      <trkpt lat="45.4419" lon="2.50888">
        <ele>553</ele>
        <time>2021-10-07T15:51:43Z</time>
      </trkpt>
      <trkpt lat="45.44188" lon="2.50897">
        <ele>553</ele>
        <time>2021-10-07T15:51:52Z</time>
      </trkpt>
      <trkpt lat="45.44187" lon="2.50908">
        <ele>554</ele>
        <time>2021-10-07T15:52:02Z</time>
      </trkpt>
      <trkpt lat="45.44185" lon="2.50914">
        <ele>554</ele>
        <time>2021-10-07T15:52:09Z</time>
      </trkpt>
      <trkpt lat="45.44183" lon="2.50921">
        <ele>554</ele>
        <time>2021-10-07T15:52:16Z</time>
      </trkpt>
      <trkpt lat="45.44182" lon="2.5093">
        <ele>555</ele>
        <time>2021-10-07T15:52:24Z</time>
      </trkpt>
      <trkpt lat="45.44181" lon="2.50937">
        <ele>555</ele>
        <time>2021-10-07T15:52:31Z</time>
      </trkpt>
      <trkpt lat="45.44179" lon="2.5094">
        <ele>554</ele>
        <time>2021-10-07T15:52:35Z</time>
      </trkpt>
      <trkpt lat="45.44178" lon="2.50946">
        <ele>554</ele>
        <time>2021-10-07T15:52:41Z</time>
      </trkpt>
      <trkpt lat="45.44177" lon="2.5095">
        <ele>554</ele>
        <time>2021-10-07T15:52:44Z</time>
      </trkpt>
      <trkpt lat="45.44175" lon="2.50955">
        <ele>554</ele>
        <time>2021-10-07T15:52:50Z</time>
      </trkpt>
      <trkpt lat="45.44174" lon="2.5096">
        <ele>553</ele>
        <time>2021-10-07T15:52:55Z</time>
      </trkpt>
      <trkpt lat="45.44173" lon="2.50969">
        <ele>554</ele>
        <time>2021-10-07T15:53:03Z</time>
      </trkpt>
      <trkpt lat="45.4417" lon="2.50978">
        <ele>553</ele>
        <time>2021-10-07T15:53:13Z</time>
      </trkpt>
      <trkpt lat="45.44168" lon="2.50985">
        <ele>553</ele>
        <time>2021-10-07T15:53:20Z</time>
      </trkpt>
      <trkpt lat="45.44166" lon="2.51011">
        <ele>553</ele>
        <time>2021-10-07T15:53:44Z</time>
      </trkpt>
      <trkpt lat="45.44163" lon="2.51038">
        <ele>553</ele>
        <time>2021-10-07T15:54:10Z</time>
      </trkpt>
      <trkpt lat="45.44166" lon="2.51092">
        <ele>554</ele>
        <time>2021-10-07T15:55:00Z</time>
      </trkpt>
      <trkpt lat="45.44158" lon="2.51129">
        <ele>551</ele>
        <time>2021-10-07T15:55:37Z</time>
      </trkpt>
      <trkpt lat="45.44161" lon="2.5118">
        <ele>551</ele>
        <time>2021-10-07T15:56:25Z</time>
      </trkpt>
      <trkpt lat="45.44162" lon="2.51201">
        <ele>554</ele>
        <time>2021-10-07T15:56:44Z</time>
      </trkpt>
      <trkpt lat="45.44157" lon="2.51229">
        <ele>556</ele>
        <time>2021-10-07T15:57:11Z</time>
      </trkpt>
      <trkpt lat="45.44147" lon="2.51249">
        <ele>558</ele>
        <time>2021-10-07T15:57:34Z</time>
      </trkpt>
      <trkpt lat="45.44127" lon="2.5126">
        <ele>557</ele>
        <time>2021-10-07T15:58:03Z</time>
      </trkpt>
      <trkpt lat="45.44093" lon="2.51256">
        <ele>552</ele>
        <time>2021-10-07T15:58:49Z</time>
      </trkpt>
      <trkpt lat="45.4406" lon="2.51246">
        <ele>552</ele>
        <time>2021-10-07T15:59:34Z</time>
      </trkpt>
      <trkpt lat="45.44044" lon="2.512">
        <ele>554</ele>
        <time>2021-10-07T16:00:22Z</time>
      </trkpt>
      <trkpt lat="45.44043" lon="2.51189">
        <ele>554</ele>
        <time>2021-10-07T16:00:32Z</time>
      </trkpt>
      <trkpt lat="45.44051" lon="2.51172">
        <ele>552</ele>
        <time>2021-10-07T16:00:51Z</time>
      </trkpt>
      <trkpt lat="45.44065" lon="2.51128">
        <ele>549</ele>
        <time>2021-10-07T16:01:36Z</time>
      </trkpt>
      <trkpt lat="45.44055" lon="2.51089">
        <ele>552</ele>
        <time>2021-10-07T16:02:15Z</time>
      </trkpt>
      <trkpt lat="45.44045" lon="2.51066">
        <ele>556</ele>
        <time>2021-10-07T16:02:41Z</time>
      </trkpt>
      <trkpt lat="45.44054" lon="2.51041">
        <ele>553</ele>
        <time>2021-10-07T16:03:07Z</time>
      </trkpt>
      <trkpt lat="45.44056" lon="2.51021">
        <ele>552</ele>
        <time>2021-10-07T16:03:26Z</time>
      </trkpt>
      <trkpt lat="45.44051" lon="2.51012">
        <ele>554</ele>
        <time>2021-10-07T16:03:37Z</time>
      </trkpt>
      <trkpt lat="45.44047" lon="2.51006">
        <ele>556</ele>
        <time>2021-10-07T16:03:44Z</time>
      </trkpt>
      <trkpt lat="45.44044" lon="2.50999">
        <ele>557</ele>
        <time>2021-10-07T16:03:52Z</time>
      </trkpt>
      <trkpt lat="45.44043" lon="2.50995">
        <ele>558</ele>
        <time>2021-10-07T16:03:56Z</time>
      </trkpt>
      <trkpt lat="45.44043" lon="2.50987">
        <ele>558</ele>
        <time>2021-10-07T16:04:04Z</time>
      </trkpt>
      <trkpt lat="45.44042" lon="2.5098">
        <ele>558</ele>
        <time>2021-10-07T16:04:10Z</time>
      </trkpt>
      <trkpt lat="45.44042" lon="2.5097">
        <ele>557</ele>
        <time>2021-10-07T16:04:20Z</time>
      </trkpt>
      <trkpt lat="45.44043" lon="2.50963">
        <ele>557</ele>
        <time>2021-10-07T16:04:26Z</time>
      </trkpt>
      <trkpt lat="45.44044" lon="2.50955">
        <ele>556</ele>
        <time>2021-10-07T16:04:34Z</time>
      </trkpt>
      <trkpt lat="45.44043" lon="2.50951">
        <ele>556</ele>
        <time>2021-10-07T16:04:38Z</time>
      </trkpt>
      <trkpt lat="45.44043" lon="2.50946">
        <ele>556</ele>
        <time>2021-10-07T16:04:43Z</time>
      </trkpt>
      <trkpt lat="45.44042" lon="2.50941">
        <ele>557</ele>
        <time>2021-10-07T16:04:47Z</time>
      </trkpt>
      <trkpt lat="45.44041" lon="2.50936">
        <ele>557</ele>
        <time>2021-10-07T16:04:52Z</time>
      </trkpt>
      <trkpt lat="45.44041" lon="2.50929">
        <ele>557</ele>
        <time>2021-10-07T16:04:59Z</time>
      </trkpt>
      <trkpt lat="45.44041" lon="2.50925">
        <ele>557</ele>
        <time>2021-10-07T16:05:03Z</time>
      </trkpt>
      <trkpt lat="45.4404" lon="2.5092">
        <ele>557</ele>
        <time>2021-10-07T16:05:07Z</time>
      </trkpt>
      <trkpt lat="45.4404" lon="2.50915">
        <ele>557</ele>
        <time>2021-10-07T16:05:12Z</time>
      </trkpt>
      <trkpt lat="45.44042" lon="2.50891">
        <ele>556</ele>
        <time>2021-10-07T16:05:35Z</time>
      </trkpt>
      <trkpt lat="45.44039" lon="2.50878">
        <ele>557</ele>
        <time>2021-10-07T16:05:48Z</time>
      </trkpt>
      <trkpt lat="45.44035" lon="2.50858">
        <ele>559</ele>
        <time>2021-10-07T16:06:07Z</time>
      </trkpt>
      <trkpt lat="45.44028" lon="2.50837">
        <ele>562</ele>
        <time>2021-10-07T16:06:29Z</time>
      </trkpt>
      <trkpt lat="45.44023" lon="2.50824">
        <ele>565</ele>
        <time>2021-10-07T16:06:43Z</time>
      </trkpt>
      <trkpt lat="45.44026" lon="2.50813">
        <ele>564</ele>
        <time>2021-10-07T16:06:54Z</time>
      </trkpt>
      <trkpt lat="45.44029" lon="2.50803">
        <ele>564</ele>
        <time>2021-10-07T16:07:04Z</time>
      </trkpt>
      <trkpt lat="45.44031" lon="2.50794">
        <ele>563</ele>
        <time>2021-10-07T16:07:13Z</time>
      </trkpt>
      <trkpt lat="45.44034" lon="2.50785">
        <ele>562</ele>
        <time>2021-10-07T16:07:22Z</time>
      </trkpt>
      <trkpt lat="45.44036" lon="2.50772">
        <ele>562</ele>
        <time>2021-10-07T16:07:35Z</time>
      </trkpt>
      <trkpt lat="45.44039" lon="2.5076">
        <ele>561</ele>
        <time>2021-10-07T16:07:46Z</time>
      </trkpt>
      <trkpt lat="45.44043" lon="2.50747">
        <ele>559</ele>
        <time>2021-10-07T16:08:00Z</time>
      </trkpt>
      <trkpt lat="45.44045" lon="2.50737">
        <ele>558</ele>
        <time>2021-10-07T16:08:10Z</time>
      </trkpt>
      <trkpt lat="45.44046" lon="2.50727">
        <ele>558</ele>
        <time>2021-10-07T16:08:19Z</time>
      </trkpt>
      <trkpt lat="45.44049" lon="2.50715">
        <ele>557</ele>
        <time>2021-10-07T16:08:31Z</time>
      </trkpt>
      <trkpt lat="45.44051" lon="2.50704">
        <ele>556</ele>
        <time>2021-10-07T16:08:42Z</time>
      </trkpt>
      <trkpt lat="45.44052" lon="2.50695">
        <ele>555</ele>
        <time>2021-10-07T16:08:50Z</time>
      </trkpt>
      <trkpt lat="45.44054" lon="2.50685">
        <ele>554</ele>
        <time>2021-10-07T16:09:00Z</time>
      </trkpt>
      <trkpt lat="45.44056" lon="2.50679">
        <ele>554</ele>
        <time>2021-10-07T16:09:06Z</time>
      </trkpt>
      <trkpt lat="45.44059" lon="2.50671">
        <ele>552</ele>
        <time>2021-10-07T16:09:15Z</time>
      </trkpt>
      <trkpt lat="45.44061" lon="2.50665">
        <ele>551</ele>
        <time>2021-10-07T16:09:21Z</time>
      </trkpt>
      <trkpt lat="45.44063" lon="2.50659">
        <ele>549</ele>
        <time>2021-10-07T16:09:27Z</time>
      </trkpt>
      <trkpt lat="45.44054" lon="2.50647">
        <ele>552</ele>
        <time>2021-10-07T16:09:43Z</time>
      </trkpt>
      <trkpt lat="45.44052" lon="2.50639">
        <ele>551</ele>
        <time>2021-10-07T16:09:51Z</time>
      </trkpt>
      <trkpt lat="45.44049" lon="2.50631">
        <ele>552</ele>
        <time>2021-10-07T16:10:00Z</time>
      </trkpt>
      <trkpt lat="45.44047" lon="2.50626">
        <ele>552</ele>
        <time>2021-10-07T16:10:05Z</time>
      </trkpt>
      <trkpt lat="45.44046" lon="2.50618">
        <ele>551</ele>
        <time>2021-10-07T16:10:13Z</time>
      </trkpt>
      <trkpt lat="45.44044" lon="2.50609">
        <ele>550</ele>
        <time>2021-10-07T16:10:22Z</time>
      </trkpt>
      <trkpt lat="45.44041" lon="2.506">
        <ele>550</ele>
        <time>2021-10-07T16:10:31Z</time>
      </trkpt>
      <trkpt lat="45.44034" lon="2.50589">
        <ele>550</ele>
        <time>2021-10-07T16:10:45Z</time>
      </trkpt>
      <trkpt lat="45.44028" lon="2.50578">
        <ele>551</ele>
        <time>2021-10-07T16:10:58Z</time>
      </trkpt>
      <trkpt lat="45.4402" lon="2.50566">
        <ele>551</ele>
        <time>2021-10-07T16:11:13Z</time>
      </trkpt>
      <trkpt lat="45.44013" lon="2.50555">
        <ele>551</ele>
        <time>2021-10-07T16:11:27Z</time>
      </trkpt>
      <trkpt lat="45.44005" lon="2.50545">
        <ele>551</ele>
        <time>2021-10-07T16:11:42Z</time>
      </trkpt>
      <trkpt lat="45.43999" lon="2.50536">
        <ele>550</ele>
        <time>2021-10-07T16:11:53Z</time>
      </trkpt>
      <trkpt lat="45.43992" lon="2.50529">
        <ele>550</ele>
        <time>2021-10-07T16:12:05Z</time>
      </trkpt>
      <trkpt lat="45.43985" lon="2.50523">
        <ele>551</ele>
        <time>2021-10-07T16:12:15Z</time>
      </trkpt>
      <trkpt lat="45.43978" lon="2.50516">
        <ele>551</ele>
        <time>2021-10-07T16:12:27Z</time>
      </trkpt>
      <trkpt lat="45.43971" lon="2.50507">
        <ele>551</ele>
        <time>2021-10-07T16:12:39Z</time>
      </trkpt>
      <trkpt lat="45.43965" lon="2.50502">
        <ele>552</ele>
        <time>2021-10-07T16:12:49Z</time>
      </trkpt>
      <trkpt lat="45.4396" lon="2.50496">
        <ele>553</ele>
        <time>2021-10-07T16:12:57Z</time>
      </trkpt>
      <trkpt lat="45.43951" lon="2.50488">
        <ele>554</ele>
        <time>2021-10-07T16:13:12Z</time>
      </trkpt>
      <trkpt lat="45.43941" lon="2.50478">
        <ele>555</ele>
        <time>2021-10-07T16:13:28Z</time>
      </trkpt>
      <trkpt lat="45.43931" lon="2.50465">
        <ele>555</ele>
        <time>2021-10-07T16:13:46Z</time>
      </trkpt>
      <trkpt lat="45.43923" lon="2.50456">
        <ele>554</ele>
        <time>2021-10-07T16:14:00Z</time>
      </trkpt>
      <trkpt lat="45.43904" lon="2.50441">
        <ele>554</ele>
        <time>2021-10-07T16:14:29Z</time>
      </trkpt>
      <trkpt lat="45.43896" lon="2.50435">
        <ele>554</ele>
        <time>2021-10-07T16:14:41Z</time>
      </trkpt>
      <trkpt lat="45.43888" lon="2.50428">
        <ele>554</ele>
        <time>2021-10-07T16:14:53Z</time>
      </trkpt>
      <trkpt lat="45.43878" lon="2.50419">
        <ele>553</ele>
        <time>2021-10-07T16:15:09Z</time>
      </trkpt>
      <trkpt lat="45.43872" lon="2.50414">
        <ele>554</ele>
        <time>2021-10-07T16:15:18Z</time>
      </trkpt>
      <trkpt lat="45.43866" lon="2.50408">
        <ele>553</ele>
        <time>2021-10-07T16:15:28Z</time>
      </trkpt>
      <trkpt lat="45.43861" lon="2.50403">
        <ele>553</ele>
        <time>2021-10-07T16:15:36Z</time>
      </trkpt>
      <trkpt lat="45.43856" lon="2.50398">
        <ele>553</ele>
        <time>2021-10-07T16:15:44Z</time>
      </trkpt>
      <trkpt lat="45.4385" lon="2.50392">
        <ele>553</ele>
        <time>2021-10-07T16:15:54Z</time>
      </trkpt>
      <trkpt lat="45.43833" lon="2.50384">
        <ele>553</ele>
        <time>2021-10-07T16:16:18Z</time>
      </trkpt>
      <trkpt lat="45.4382" lon="2.50377">
        <ele>552</ele>
        <time>2021-10-07T16:16:37Z</time>
      </trkpt>
      <trkpt lat="45.43815" lon="2.50373">
        <ele>551</ele>
        <time>2021-10-07T16:16:44Z</time>
      </trkpt>
      <trkpt lat="45.43802" lon="2.50364">
        <ele>549</ele>
        <time>2021-10-07T16:17:03Z</time>
      </trkpt>
      <trkpt lat="45.43792" lon="2.50358">
        <ele>548</ele>
        <time>2021-10-07T16:17:18Z</time>
      </trkpt>
      <trkpt lat="45.43786" lon="2.50353">
        <ele>547</ele>
        <time>2021-10-07T16:17:27Z</time>
      </trkpt>
      <trkpt lat="45.43779" lon="2.50349">
        <ele>547</ele>
        <time>2021-10-07T16:17:37Z</time>
      </trkpt>
      <trkpt lat="45.43772" lon="2.50344">
        <ele>546</ele>
        <time>2021-10-07T16:17:48Z</time>
      </trkpt>
      <trkpt lat="45.43765" lon="2.50339">
        <ele>545</ele>
        <time>2021-10-07T16:17:58Z</time>
      </trkpt>
      <trkpt lat="45.43758" lon="2.50334">
        <ele>545</ele>
        <time>2021-10-07T16:18:09Z</time>
      </trkpt>
      <trkpt lat="45.43749" lon="2.50328">
        <ele>544</ele>
        <time>2021-10-07T16:18:22Z</time>
      </trkpt>
      <trkpt lat="45.43739" lon="2.50321">
        <ele>544</ele>
        <time>2021-10-07T16:18:37Z</time>
      </trkpt>
      <trkpt lat="45.43719" lon="2.50318">
        <ele>544</ele>
        <time>2021-10-07T16:19:04Z</time>
      </trkpt>
      <trkpt lat="45.43713" lon="2.50322">
        <ele>545</ele>
        <time>2021-10-07T16:19:12Z</time>
      </trkpt>
      <trkpt lat="45.43708" lon="2.50326">
        <ele>546</ele>
        <time>2021-10-07T16:19:20Z</time>
      </trkpt>
      <trkpt lat="45.43704" lon="2.50329">
        <ele>547</ele>
        <time>2021-10-07T16:19:26Z</time>
      </trkpt>
      <trkpt lat="45.437" lon="2.50332">
        <ele>547</ele>
        <time>2021-10-07T16:19:32Z</time>
      </trkpt>
      <trkpt lat="45.43696" lon="2.50335">
        <ele>548</ele>
        <time>2021-10-07T16:19:38Z</time>
      </trkpt>
      <trkpt lat="45.43689" lon="2.5034">
        <ele>549</ele>
        <time>2021-10-07T16:19:49Z</time>
      </trkpt>
      <trkpt lat="45.43684" lon="2.50343">
        <ele>550</ele>
        <time>2021-10-07T16:19:56Z</time>
      </trkpt>
      <trkpt lat="45.43679" lon="2.50346">
        <ele>550</ele>
        <time>2021-10-07T16:20:03Z</time>
      </trkpt>
      <trkpt lat="45.43671" lon="2.50348">
        <ele>551</ele>
        <time>2021-10-07T16:20:14Z</time>
      </trkpt>
      <trkpt lat="45.43665" lon="2.50348">
        <ele>551</ele>
        <time>2021-10-07T16:20:22Z</time>
      </trkpt>
      <trkpt lat="45.43661" lon="2.50349">
        <ele>552</ele>
        <time>2021-10-07T16:20:27Z</time>
      </trkpt>
      <trkpt lat="45.43658" lon="2.5035">
        <ele>553</ele>
        <time>2021-10-07T16:20:31Z</time>
      </trkpt>
      <trkpt lat="45.43649" lon="2.50339">
        <ele>553</ele>
        <time>2021-10-07T16:20:47Z</time>
      </trkpt>
      <trkpt lat="45.43644" lon="2.50327">
        <ele>553</ele>
        <time>2021-10-07T16:21:00Z</time>
      </trkpt>
      <trkpt lat="45.43641" lon="2.50318">
        <ele>552</ele>
        <time>2021-10-07T16:21:10Z</time>
      </trkpt>
      <trkpt lat="45.43639" lon="2.50307">
        <ele>551</ele>
        <time>2021-10-07T16:21:20Z</time>
      </trkpt>
      <trkpt lat="45.43636" lon="2.50296">
        <ele>550</ele>
        <time>2021-10-07T16:21:31Z</time>
      </trkpt>
      <trkpt lat="45.43634" lon="2.50284">
        <ele>549</ele>
        <time>2021-10-07T16:21:43Z</time>
      </trkpt>
      <trkpt lat="45.4363" lon="2.50268">
        <ele>547</ele>
        <time>2021-10-07T16:21:59Z</time>
      </trkpt>
      <trkpt lat="45.43626" lon="2.50254">
        <ele>546</ele>
        <time>2021-10-07T16:22:13Z</time>
      </trkpt>
      <trkpt lat="45.43623" lon="2.50244">
        <ele>545</ele>
        <time>2021-10-07T16:22:23Z</time>
      </trkpt>
      <trkpt lat="45.43621" lon="2.50238">
        <ele>545</ele>
        <time>2021-10-07T16:22:29Z</time>
      </trkpt>
      <trkpt lat="45.43619" lon="2.5023">
        <ele>545</ele>
        <time>2021-10-07T16:22:37Z</time>
      </trkpt>
      <trkpt lat="45.43616" lon="2.50221">
        <ele>544</ele>
        <time>2021-10-07T16:22:47Z</time>
      </trkpt>
      <trkpt lat="45.43603" lon="2.5021">
        <ele>545</ele>
        <time>2021-10-07T16:23:07Z</time>
      </trkpt>
      <trkpt lat="45.43592" lon="2.50206">
        <ele>546</ele>
        <time>2021-10-07T16:23:22Z</time>
      </trkpt>
      <trkpt lat="45.43584" lon="2.50194">
        <ele>546</ele>
        <time>2021-10-07T16:23:38Z</time>
      </trkpt>
      <trkpt lat="45.43574" lon="2.50185">
        <ele>546</ele>
        <time>2021-10-07T16:23:53Z</time>
      </trkpt>
      <trkpt lat="45.43568" lon="2.50177">
        <ele>545</ele>
        <time>2021-10-07T16:24:04Z</time>
      </trkpt>
      <trkpt lat="45.43563" lon="2.50172">
        <ele>545</ele>
        <time>2021-10-07T16:24:12Z</time>
      </trkpt>
      <trkpt lat="45.43559" lon="2.50166">
        <ele>545</ele>
        <time>2021-10-07T16:24:20Z</time>
      </trkpt>
      <trkpt lat="45.43551" lon="2.50165">
        <ele>545</ele>
        <time>2021-10-07T16:24:31Z</time>
      </trkpt>
      <trkpt lat="45.43543" lon="2.50162">
        <ele>546</ele>
        <time>2021-10-07T16:24:42Z</time>
      </trkpt>
      <trkpt lat="45.43532" lon="2.50159">
        <ele>546</ele>
        <time>2021-10-07T16:24:57Z</time>
      </trkpt>
      <trkpt lat="45.43523" lon="2.50167">
        <ele>549</ele>
        <time>2021-10-07T16:25:11Z</time>
      </trkpt>
      <trkpt lat="45.4351" lon="2.50167">
        <ele>550</ele>
        <time>2021-10-07T16:25:28Z</time>
      </trkpt>
      <trkpt lat="45.43499" lon="2.50166">
        <ele>551</ele>
        <time>2021-10-07T16:25:43Z</time>
      </trkpt>
      <trkpt lat="45.43486" lon="2.50166">
        <ele>551</ele>
        <time>2021-10-07T16:26:00Z</time>
      </trkpt>
      <trkpt lat="45.43474" lon="2.50167">
        <ele>551</ele>
        <time>2021-10-07T16:26:16Z</time>
      </trkpt>
      <trkpt lat="45.43464" lon="2.50164">
        <ele>551</ele>
        <time>2021-10-07T16:26:30Z</time>
      </trkpt>
      <trkpt lat="45.43454" lon="2.50161">
        <ele>550</ele>
        <time>2021-10-07T16:26:44Z</time>
      </trkpt>
      <trkpt lat="45.43446" lon="2.5016">
        <ele>550</ele>
        <time>2021-10-07T16:26:54Z</time>
      </trkpt>
      <trkpt lat="45.43438" lon="2.5016">
        <ele>550</ele>
        <time>2021-10-07T16:27:05Z</time>
      </trkpt>
      <trkpt lat="45.43433" lon="2.5016">
        <ele>550</ele>
        <time>2021-10-07T16:27:12Z</time>
      </trkpt>
      <trkpt lat="45.43425" lon="2.5016">
        <ele>550</ele>
        <time>2021-10-07T16:27:22Z</time>
      </trkpt>
      <trkpt lat="45.43414" lon="2.5016">
        <ele>550</ele>
        <time>2021-10-07T16:27:37Z</time>
      </trkpt>
      <trkpt lat="45.43406" lon="2.5016">
        <ele>550</ele>
        <time>2021-10-07T16:27:48Z</time>
      </trkpt>
      <trkpt lat="45.43389" lon="2.50166">
        <ele>550</ele>
        <time>2021-10-07T16:28:11Z</time>
      </trkpt>
      <trkpt lat="45.43383" lon="2.50168">
        <ele>550</ele>
        <time>2021-10-07T16:28:19Z</time>
      </trkpt>
      <trkpt lat="45.43375" lon="2.50172">
        <ele>550</ele>
        <time>2021-10-07T16:28:31Z</time>
      </trkpt>
      <trkpt lat="45.43369" lon="2.50174">
        <ele>550</ele>
        <time>2021-10-07T16:28:39Z</time>
      </trkpt>
      <trkpt lat="45.43363" lon="2.50176">
        <ele>550</ele>
        <time>2021-10-07T16:28:47Z</time>
      </trkpt>
      <trkpt lat="45.43359" lon="2.50178">
        <ele>550</ele>
        <time>2021-10-07T16:28:53Z</time>
      </trkpt>
      <trkpt lat="45.43353" lon="2.50181">
        <ele>551</ele>
        <time>2021-10-07T16:29:01Z</time>
      </trkpt>
      <trkpt lat="45.43346" lon="2.50181">
        <ele>550</ele>
        <time>2021-10-07T16:29:11Z</time>
      </trkpt>
      <trkpt lat="45.43339" lon="2.50184">
        <ele>551</ele>
        <time>2021-10-07T16:29:20Z</time>
      </trkpt>
      <trkpt lat="45.43326" lon="2.502">
        <ele>555</ele>
        <time>2021-10-07T16:29:43Z</time>
      </trkpt>
      <trkpt lat="45.43323" lon="2.50205">
        <ele>556</ele>
        <time>2021-10-07T16:29:50Z</time>
      </trkpt>
      <trkpt lat="45.43305" lon="2.50222">
        <ele>561</ele>
        <time>2021-10-07T16:30:18Z</time>
      </trkpt>
      <trkpt lat="45.43299" lon="2.50216">
        <ele>561</ele>
        <time>2021-10-07T16:30:28Z</time>
      </trkpt>
      <trkpt lat="45.43305" lon="2.50205">
        <ele>558</ele>
        <time>2021-10-07T16:30:41Z</time>
      </trkpt>
      <trkpt lat="45.43307" lon="2.50199">
        <ele>556</ele>
        <time>2021-10-07T16:30:47Z</time>
      </trkpt>
      <trkpt lat="45.43309" lon="2.50195">
        <ele>555</ele>
        <time>2021-10-07T16:30:52Z</time>
      </trkpt>
      <trkpt lat="45.43311" lon="2.50191">
        <ele>554</ele>
        <time>2021-10-07T16:30:57Z</time>
      </trkpt>
      <trkpt lat="45.43311" lon="2.50183">
        <ele>553</ele>
        <time>2021-10-07T16:31:04Z</time>
      </trkpt>
      <trkpt lat="45.43311" lon="2.50177">
        <ele>551</ele>
        <time>2021-10-07T16:31:10Z</time>
      </trkpt>
      <trkpt lat="45.43311" lon="2.50173">
        <ele>550</ele>
        <time>2021-10-07T16:31:13Z</time>
      </trkpt>
      <trkpt lat="45.43311" lon="2.50168">
        <ele>549</ele>
        <time>2021-10-07T16:31:18Z</time>
      </trkpt>
      <trkpt lat="45.43308" lon="2.50154">
        <ele>547</ele>
        <time>2021-10-07T16:31:32Z</time>
      </trkpt>
      <trkpt lat="45.43304" lon="2.5014">
        <ele>545</ele>
        <time>2021-10-07T16:31:46Z</time>
      </trkpt>
      <trkpt lat="45.43292" lon="2.50139">
        <ele>546</ele>
        <time>2021-10-07T16:32:02Z</time>
      </trkpt>
      <trkpt lat="45.43279" lon="2.5014">
        <ele>548</ele>
        <time>2021-10-07T16:32:19Z</time>
      </trkpt>
      <trkpt lat="45.43269" lon="2.5014">
        <ele>549</ele>
        <time>2021-10-07T16:32:33Z</time>
      </trkpt>
      <trkpt lat="45.43262" lon="2.50138">
        <ele>549</ele>
        <time>2021-10-07T16:32:42Z</time>
      </trkpt>
      <trkpt lat="45.43252" lon="2.50136">
        <ele>550</ele>
        <time>2021-10-07T16:32:56Z</time>
      </trkpt>
      <trkpt lat="45.43236" lon="2.50135">
        <ele>552</ele>
        <time>2021-10-07T16:33:17Z</time>
      </trkpt>
      <trkpt lat="45.43226" lon="2.50135">
        <ele>553</ele>
        <time>2021-10-07T16:33:30Z</time>
      </trkpt>
      <trkpt lat="45.43218" lon="2.50136">
        <ele>555</ele>
        <time>2021-10-07T16:33:41Z</time>
      </trkpt>
      <trkpt lat="45.43212" lon="2.50135">
        <ele>556</ele>
        <time>2021-10-07T16:33:49Z</time>
      </trkpt>
      <trkpt lat="45.43208" lon="2.50135">
        <ele>556</ele>
        <time>2021-10-07T16:33:55Z</time>
      </trkpt>
      <trkpt lat="45.43205" lon="2.50136">
        <ele>557</ele>
        <time>2021-10-07T16:33:59Z</time>
      </trkpt>
      <trkpt lat="45.432" lon="2.50136">
        <ele>558</ele>
        <time>2021-10-07T16:34:05Z</time>
      </trkpt>
      <trkpt lat="45.43195" lon="2.50135">
        <ele>558</ele>
        <time>2021-10-07T16:34:12Z</time>
      </trkpt>
      <trkpt lat="45.4319" lon="2.50131">
        <ele>558</ele>
        <time>2021-10-07T16:34:20Z</time>
      </trkpt>
      <trkpt lat="45.43188" lon="2.50128">
        <ele>558</ele>
        <time>2021-10-07T16:34:24Z</time>
      </trkpt>
      <trkpt lat="45.43184" lon="2.50124">
        <ele>558</ele>
        <time>2021-10-07T16:34:30Z</time>
      </trkpt>
      <trkpt lat="45.43182" lon="2.50115">
        <ele>558</ele>
        <time>2021-10-07T16:34:39Z</time>
      </trkpt>
      <trkpt lat="45.43181" lon="2.50108">
        <ele>557</ele>
        <time>2021-10-07T16:34:46Z</time>
      </trkpt>
      <trkpt lat="45.43179" lon="2.50101">
        <ele>556</ele>
        <time>2021-10-07T16:34:53Z</time>
      </trkpt>
      <trkpt lat="45.43177" lon="2.50096">
        <ele>556</ele>
        <time>2021-10-07T16:34:58Z</time>
      </trkpt>
      <trkpt lat="45.43172" lon="2.50089">
        <ele>556</ele>
        <time>2021-10-07T16:35:07Z</time>
      </trkpt>
      <trkpt lat="45.43167" lon="2.50083">
        <ele>557</ele>
        <time>2021-10-07T16:35:16Z</time>
      </trkpt>
      <trkpt lat="45.43163" lon="2.50077">
        <ele>556</ele>
        <time>2021-10-07T16:35:24Z</time>
      </trkpt>
      <trkpt lat="45.43159" lon="2.50072">
        <ele>555</ele>
        <time>2021-10-07T16:35:31Z</time>
      </trkpt>
      <trkpt lat="45.43155" lon="2.50066">
        <ele>554</ele>
        <time>2021-10-07T16:35:39Z</time>
      </trkpt>
      <trkpt lat="45.43151" lon="2.5006">
        <ele>553</ele>
        <time>2021-10-07T16:35:47Z</time>
      </trkpt>
      <trkpt lat="45.43146" lon="2.50053">
        <ele>552</ele>
        <time>2021-10-07T16:35:56Z</time>
      </trkpt>
      <trkpt lat="45.43142" lon="2.50047">
        <ele>551</ele>
        <time>2021-10-07T16:36:04Z</time>
      </trkpt>
      <trkpt lat="45.43121" lon="2.50041">
        <ele>552</ele>
        <time>2021-10-07T16:36:32Z</time>
      </trkpt>
      <trkpt lat="45.43118" lon="2.50037">
        <ele>551</ele>
        <time>2021-10-07T16:36:38Z</time>
      </trkpt>
      <trkpt lat="45.4311" lon="2.50028">
        <ele>550</ele>
        <time>2021-10-07T16:36:51Z</time>
      </trkpt>
      <trkpt lat="45.43105" lon="2.50022">
        <ele>549</ele>
        <time>2021-10-07T16:37:00Z</time>
      </trkpt>
      <trkpt lat="45.431" lon="2.50018">
        <ele>549</ele>
        <time>2021-10-07T16:37:08Z</time>
      </trkpt>
      <trkpt lat="45.43096" lon="2.50012">
        <ele>548</ele>
        <time>2021-10-07T16:37:15Z</time>
      </trkpt>
      <trkpt lat="45.43091" lon="2.50008">
        <ele>547</ele>
        <time>2021-10-07T16:37:23Z</time>
      </trkpt>
      <trkpt lat="45.43074" lon="2.50016">
        <ele>549</ele>
        <time>2021-10-07T16:37:47Z</time>
      </trkpt>
      <trkpt lat="45.43066" lon="2.50019">
        <ele>548</ele>
        <time>2021-10-07T16:37:58Z</time>
      </trkpt>
      <trkpt lat="45.43059" lon="2.50023">
        <ele>548</ele>
        <time>2021-10-07T16:38:08Z</time>
      </trkpt>
      <trkpt lat="45.43052" lon="2.50026">
        <ele>548</ele>
        <time>2021-10-07T16:38:18Z</time>
      </trkpt>
      <trkpt lat="45.43047" lon="2.50028">
        <ele>548</ele>
        <time>2021-10-07T16:38:25Z</time>
      </trkpt>
      <trkpt lat="45.43041" lon="2.5004">
        <ele>550</ele>
        <time>2021-10-07T16:38:39Z</time>
      </trkpt>
      <trkpt lat="45.43037" lon="2.50047">
        <ele>551</ele>
        <time>2021-10-07T16:38:47Z</time>
      </trkpt>
      <trkpt lat="45.43032" lon="2.50057">
        <ele>552</ele>
        <time>2021-10-07T16:38:59Z</time>
      </trkpt>
      <trkpt lat="45.43022" lon="2.50064">
        <ele>552</ele>
        <time>2021-10-07T16:39:13Z</time>
      </trkpt>
      <trkpt lat="45.43011" lon="2.5007">
        <ele>552</ele>
        <time>2021-10-07T16:39:29Z</time>
      </trkpt>
      <trkpt lat="45.43005" lon="2.50075">
        <ele>552</ele>
        <time>2021-10-07T16:39:38Z</time>
      </trkpt>
      <trkpt lat="45.43" lon="2.50078">
        <ele>552</ele>
        <time>2021-10-07T16:39:46Z</time>
      </trkpt>
      <trkpt lat="45.42993" lon="2.50082">
        <ele>551</ele>
        <time>2021-10-07T16:39:56Z</time>
      </trkpt>
      <trkpt lat="45.42988" lon="2.50086">
        <ele>551</ele>
        <time>2021-10-07T16:40:03Z</time>
      </trkpt>
      <trkpt lat="45.42984" lon="2.50088">
        <ele>550</ele>
        <time>2021-10-07T16:40:09Z</time>
      </trkpt>
      <trkpt lat="45.42979" lon="2.5009">
        <ele>549</ele>
        <time>2021-10-07T16:40:16Z</time>
      </trkpt>
      <trkpt lat="45.42974" lon="2.50094">
        <ele>548</ele>
        <time>2021-10-07T16:40:24Z</time>
      </trkpt>
      <trkpt lat="45.42966" lon="2.501">
        <ele>548</ele>
        <time>2021-10-07T16:40:36Z</time>
      </trkpt>
      <trkpt lat="45.4296" lon="2.50104">
        <ele>547</ele>
        <time>2021-10-07T16:40:45Z</time>
      </trkpt>
      <trkpt lat="45.4296" lon="2.50122">
        <ele>550</ele>
        <time>2021-10-07T16:41:01Z</time>
      </trkpt>
      <trkpt lat="45.4296" lon="2.50129">
        <ele>551</ele>
        <time>2021-10-07T16:41:08Z</time>
      </trkpt>
      <trkpt lat="45.42961" lon="2.50139">
        <ele>553</ele>
        <time>2021-10-07T16:41:17Z</time>
      </trkpt>
      <trkpt lat="45.42961" lon="2.50152">
        <ele>555</ele>
        <time>2021-10-07T16:41:30Z</time>
      </trkpt>
      <trkpt lat="45.42961" lon="2.50161">
        <ele>557</ele>
        <time>2021-10-07T16:41:38Z</time>
      </trkpt>
      <trkpt lat="45.42961" lon="2.50167">
        <ele>558</ele>
        <time>2021-10-07T16:41:44Z</time>
      </trkpt>
      <trkpt lat="45.42961" lon="2.50173">
        <ele>559</ele>
        <time>2021-10-07T16:41:49Z</time>
      </trkpt>
      <trkpt lat="45.42954" lon="2.50179">
        <ele>559</ele>
        <time>2021-10-07T16:42:00Z</time>
      </trkpt>
      <trkpt lat="45.4295" lon="2.50183">
        <ele>559</ele>
        <time>2021-10-07T16:42:07Z</time>
      </trkpt>
      <trkpt lat="45.42946" lon="2.50186">
        <ele>559</ele>
        <time>2021-10-07T16:42:13Z</time>
      </trkpt>
      <trkpt lat="45.42941" lon="2.5019">
        <ele>560</ele>
        <time>2021-10-07T16:42:20Z</time>
      </trkpt>
      <trkpt lat="45.42935" lon="2.50194">
        <ele>560</ele>
        <time>2021-10-07T16:42:29Z</time>
      </trkpt>
      <trkpt lat="45.42926" lon="2.50192">
        <ele>558</ele>
        <time>2021-10-07T16:42:41Z</time>
      </trkpt>
      <trkpt lat="45.42919" lon="2.50192">
        <ele>558</ele>
        <time>2021-10-07T16:42:51Z</time>
      </trkpt>
      <trkpt lat="45.42914" lon="2.50189">
        <ele>557</ele>
        <time>2021-10-07T16:42:58Z</time>
      </trkpt>
      <trkpt lat="45.42908" lon="2.50189">
        <ele>557</ele>
        <time>2021-10-07T16:43:06Z</time>
      </trkpt>
      <trkpt lat="45.429" lon="2.50189">
        <ele>557</ele>
        <time>2021-10-07T16:43:17Z</time>
      </trkpt>
      <trkpt lat="45.42893" lon="2.50187">
        <ele>557</ele>
        <time>2021-10-07T16:43:26Z</time>
      </trkpt>
      <trkpt lat="45.42886" lon="2.50186">
        <ele>557</ele>
        <time>2021-10-07T16:43:36Z</time>
      </trkpt>
      <trkpt lat="45.4288" lon="2.50185">
        <ele>556</ele>
        <time>2021-10-07T16:43:44Z</time>
      </trkpt>
      <trkpt lat="45.42875" lon="2.50184">
        <ele>556</ele>
        <time>2021-10-07T16:43:50Z</time>
      </trkpt>
      <trkpt lat="45.42855" lon="2.5017">
        <ele>553</ele>
        <time>2021-10-07T16:44:20Z</time>
      </trkpt>
      <trkpt lat="45.42845" lon="2.50172">
        <ele>554</ele>
        <time>2021-10-07T16:44:34Z</time>
      </trkpt>
      <trkpt lat="45.42835" lon="2.50175">
        <ele>555</ele>
        <time>2021-10-07T16:44:47Z</time>
      </trkpt>
      <trkpt lat="45.42828" lon="2.50175">
        <ele>555</ele>
        <time>2021-10-07T16:44:56Z</time>
      </trkpt>
      <trkpt lat="45.4282" lon="2.50175">
        <ele>556</ele>
        <time>2021-10-07T16:45:07Z</time>
      </trkpt>
      <trkpt lat="45.4281" lon="2.50178">
        <ele>558</ele>
        <time>2021-10-07T16:45:21Z</time>
      </trkpt>
      <trkpt lat="45.42799" lon="2.50179">
        <ele>559</ele>
        <time>2021-10-07T16:45:36Z</time>
      </trkpt>
      <trkpt lat="45.42785" lon="2.50181">
        <ele>560</ele>
        <time>2021-10-07T16:45:54Z</time>
      </trkpt>
      <trkpt lat="45.42773" lon="2.50182">
        <ele>561</ele>
        <time>2021-10-07T16:46:10Z</time>
      </trkpt>
      <trkpt lat="45.42763" lon="2.50185">
        <ele>562</ele>
        <time>2021-10-07T16:46:24Z</time>
      </trkpt>
      <trkpt lat="45.42755" lon="2.50188">
        <ele>563</ele>
        <time>2021-10-07T16:46:35Z</time>
      </trkpt>
      <trkpt lat="45.42747" lon="2.50192">
        <ele>564</ele>
        <time>2021-10-07T16:46:46Z</time>
      </trkpt>
      <trkpt lat="45.42735" lon="2.50197">
        <ele>567</ele>
        <time>2021-10-07T16:47:03Z</time>
      </trkpt>
      <trkpt lat="45.42736" lon="2.50205">
        <ele>568</ele>
        <time>2021-10-07T16:47:11Z</time>
      </trkpt>
      <trkpt lat="45.42737" lon="2.50214">
        <ele>569</ele>
        <time>2021-10-07T16:47:19Z</time>
      </trkpt>
      <trkpt lat="45.42741" lon="2.50227">
        <ele>570</ele>
        <time>2021-10-07T16:47:32Z</time>
      </trkpt>
      <trkpt lat="45.42741" lon="2.50237">
        <ele>572</ele>
        <time>2021-10-07T16:47:42Z</time>
      </trkpt>
      <trkpt lat="45.42738" lon="2.5025">
        <ele>574</ele>
        <time>2021-10-07T16:47:55Z</time>
      </trkpt>
      <trkpt lat="45.42734" lon="2.50262">
        <ele>576</ele>
        <time>2021-10-07T16:48:07Z</time>
      </trkpt>
      <trkpt lat="45.42732" lon="2.50272">
        <ele>578</ele>
        <time>2021-10-07T16:48:17Z</time>
      </trkpt>
      <trkpt lat="45.42728" lon="2.50282">
        <ele>580</ele>
        <time>2021-10-07T16:48:28Z</time>
      </trkpt>
      <trkpt lat="45.42724" lon="2.50293">
        <ele>582</ele>
        <time>2021-10-07T16:48:39Z</time>
      </trkpt>
      <trkpt lat="45.42721" lon="2.50305">
        <ele>584</ele>
        <time>2021-10-07T16:48:51Z</time>
      </trkpt>
      <trkpt lat="45.42718" lon="2.50311">
        <ele>585</ele>
        <time>2021-10-07T16:48:58Z</time>
      </trkpt>
      <trkpt lat="45.42714" lon="2.50319">
        <ele>586</ele>
        <time>2021-10-07T16:49:07Z</time>
      </trkpt>
      <trkpt lat="45.42708" lon="2.50322">
        <ele>586</ele>
        <time>2021-10-07T16:49:16Z</time>
      </trkpt>
      <trkpt lat="45.42701" lon="2.50322">
        <ele>587</ele>
        <time>2021-10-07T16:49:25Z</time>
      </trkpt>
      <trkpt lat="45.427" lon="2.5033">
        <ele>588</ele>
        <time>2021-10-07T16:49:33Z</time>
      </trkpt>
      <trkpt lat="45.42701" lon="2.50336">
        <ele>588</ele>
        <time>2021-10-07T16:49:38Z</time>
      </trkpt>
      <trkpt lat="45.427" lon="2.50339">
        <ele>589</ele>
        <time>2021-10-07T16:49:42Z</time>
      </trkpt>
      <trkpt lat="45.427" lon="2.50343">
        <ele>589</ele>
        <time>2021-10-07T16:49:45Z</time>
      </trkpt>
      <trkpt lat="45.427" lon="2.5035">
        <ele>589</ele>
        <time>2021-10-07T16:49:52Z</time>
      </trkpt>
      <trkpt lat="45.427" lon="2.50357">
        <ele>590</ele>
        <time>2021-10-07T16:49:58Z</time>
      </trkpt>
      <trkpt lat="45.42701" lon="2.50364">
        <ele>590</ele>
        <time>2021-10-07T16:50:05Z</time>
      </trkpt>
      <trkpt lat="45.42703" lon="2.50371">
        <ele>591</ele>
        <time>2021-10-07T16:50:12Z</time>
      </trkpt>
      <trkpt lat="45.42706" lon="2.50387">
        <ele>592</ele>
        <time>2021-10-07T16:50:28Z</time>
      </trkpt>
      <trkpt lat="45.42707" lon="2.50399">
        <ele>593</ele>
        <time>2021-10-07T16:50:39Z</time>
      </trkpt>
      <trkpt lat="45.42709" lon="2.50406">
        <ele>593</ele>
        <time>2021-10-07T16:50:46Z</time>
      </trkpt>
      <trkpt lat="45.4271" lon="2.50411">
        <ele>594</ele>
        <time>2021-10-07T16:50:51Z</time>
      </trkpt>
      <trkpt lat="45.4271" lon="2.50416">
        <ele>594</ele>
        <time>2021-10-07T16:50:56Z</time>
      </trkpt>
      <trkpt lat="45.42716" lon="2.50423">
        <ele>594</ele>
        <time>2021-10-07T16:51:06Z</time>
      </trkpt>
      <trkpt lat="45.42719" lon="2.50428">
        <ele>594</ele>
        <time>2021-10-07T16:51:12Z</time>
      </trkpt>
      <trkpt lat="45.42724" lon="2.50428">
        <ele>594</ele>
        <time>2021-10-07T16:51:19Z</time>
      </trkpt>
      <trkpt lat="45.42729" lon="2.50429">
        <ele>594</ele>
        <time>2021-10-07T16:51:26Z</time>
      </trkpt>
      <trkpt lat="45.42736" lon="2.50417">
        <ele>593</ele>
        <time>2021-10-07T16:51:40Z</time>
      </trkpt>
      <trkpt lat="45.42743" lon="2.50406">
        <ele>592</ele>
        <time>2021-10-07T16:51:54Z</time>
      </trkpt>
      <trkpt lat="45.42743" lon="2.50422">
        <ele>593</ele>
        <time>2021-10-07T16:52:09Z</time>
      </trkpt>
      <trkpt lat="45.42742" lon="2.50433">
        <ele>594</ele>
        <time>2021-10-07T16:52:19Z</time>
      </trkpt>
      <trkpt lat="45.42739" lon="2.50448">
        <ele>594</ele>
        <time>2021-10-07T16:52:34Z</time>
      </trkpt>
      <trkpt lat="45.42736" lon="2.50461">
        <ele>594</ele>
        <time>2021-10-07T16:52:47Z</time>
      </trkpt>
      <trkpt lat="45.42735" lon="2.50473">
        <ele>595</ele>
        <time>2021-10-07T16:52:58Z</time>
      </trkpt>
      <trkpt lat="45.42734" lon="2.50497">
        <ele>595</ele>
        <time>2021-10-07T16:53:21Z</time>
      </trkpt>
      <trkpt lat="45.42731" lon="2.50515">
        <ele>596</ele>
        <time>2021-10-07T16:53:38Z</time>
      </trkpt>
      <trkpt lat="45.42731" lon="2.5052">
        <ele>596</ele>
        <time>2021-10-07T16:53:43Z</time>
      </trkpt>
      <trkpt lat="45.4274" lon="2.50514">
        <ele>595</ele>
        <time>2021-10-07T16:53:56Z</time>
      </trkpt>
      <trkpt lat="45.42748" lon="2.50512">
        <ele>595</ele>
        <time>2021-10-07T16:54:07Z</time>
      </trkpt>
      <trkpt lat="45.42762" lon="2.50512">
        <ele>595</ele>
        <time>2021-10-07T16:54:25Z</time>
      </trkpt>
      <trkpt lat="45.42782" lon="2.50505">
        <ele>596</ele>
        <time>2021-10-07T16:54:53Z</time>
      </trkpt>
      <trkpt lat="45.42803" lon="2.505">
        <ele>597</ele>
        <time>2021-10-07T16:55:21Z</time>
      </trkpt>
      <trkpt lat="45.42829" lon="2.50494">
        <ele>598</ele>
        <time>2021-10-07T16:55:57Z</time>
      </trkpt>
      <trkpt lat="45.4283" lon="2.50506">
        <ele>598</ele>
        <time>2021-10-07T16:56:08Z</time>
      </trkpt>
      <trkpt lat="45.42856" lon="2.50569">
        <ele>600</ele>
        <time>2021-10-07T16:57:16Z</time>
      </trkpt>
      <trkpt lat="45.42867" lon="2.50619">
        <ele>603</ele>
        <time>2021-10-07T16:58:05Z</time>
      </trkpt>
      <trkpt lat="45.42889" lon="2.50666">
        <ele>607</ele>
        <time>2021-10-07T16:58:58Z</time>
      </trkpt>
      <trkpt lat="45.42941" lon="2.50701">
        <ele>611</ele>
        <time>2021-10-07T17:00:15Z</time>
      </trkpt>
      <trkpt lat="45.4298" lon="2.50715">
        <ele>613</ele>
        <time>2021-10-07T17:01:09Z</time>
      </trkpt>
      <trkpt lat="45.43025" lon="2.5078">
        <ele>617</ele>
        <time>2021-10-07T17:02:34Z</time>
      </trkpt>
      <trkpt lat="45.4304" lon="2.50815">
        <ele>617</ele>
        <time>2021-10-07T17:03:13Z</time>
      </trkpt>
      <trkpt lat="45.43075" lon="2.50856">
        <ele>619</ele>
        <time>2021-10-07T17:04:13Z</time>
      </trkpt>
      <trkpt lat="45.43082" lon="2.50859">
        <ele>619</ele>
        <time>2021-10-07T17:04:23Z</time>
      </trkpt>
      <trkpt lat="45.43094" lon="2.50872">
        <ele>619</ele>
        <time>2021-10-07T17:04:43Z</time>
      </trkpt>
      <trkpt lat="45.43104" lon="2.50886">
        <ele>620</ele>
        <time>2021-10-07T17:05:02Z</time>
      </trkpt>
      <trkpt lat="45.43108" lon="2.509">
        <ele>621</ele>
        <time>2021-10-07T17:05:16Z</time>
      </trkpt>
      <trkpt lat="45.43114" lon="2.50926">
        <ele>622</ele>
        <time>2021-10-07T17:05:41Z</time>
      </trkpt>
      <trkpt lat="45.43117" lon="2.50947">
        <ele>623</ele>
        <time>2021-10-07T17:06:02Z</time>
      </trkpt>
      <trkpt lat="45.43121" lon="2.50938">
        <ele>623</ele>
        <time>2021-10-07T17:06:11Z</time>
      </trkpt>
      <trkpt lat="45.43128" lon="2.50934">
        <ele>623</ele>
        <time>2021-10-07T17:06:22Z</time>
      </trkpt>
      <trkpt lat="45.43144" lon="2.50946">
        <ele>624</ele>
        <time>2021-10-07T17:06:46Z</time>
      </trkpt>
      <trkpt lat="45.43176" lon="2.50959">
        <ele>626</ele>
        <time>2021-10-07T17:07:30Z</time>
      </trkpt>
      <trkpt lat="45.43199" lon="2.50968">
        <ele>626</ele>
        <time>2021-10-07T17:08:02Z</time>
      </trkpt>
      <trkpt lat="45.43224" lon="2.50955">
        <ele>625</ele>
        <time>2021-10-07T17:08:37Z</time>
      </trkpt>
      <trkpt lat="45.43241" lon="2.50941">
        <ele>625</ele>
        <time>2021-10-07T17:09:04Z</time>
      </trkpt>
      <trkpt lat="45.43262" lon="2.5092">
        <ele>625</ele>
        <time>2021-10-07T17:09:38Z</time>
      </trkpt>
      <trkpt lat="45.43278" lon="2.50895">
        <ele>624</ele>
        <time>2021-10-07T17:10:10Z</time>
      </trkpt>
      <trkpt lat="45.43298" lon="2.50862">
        <ele>624</ele>
        <time>2021-10-07T17:10:50Z</time>
      </trkpt>
      <trkpt lat="45.43324" lon="2.50838">
        <ele>626</ele>
        <time>2021-10-07T17:11:32Z</time>
      </trkpt>
      <trkpt lat="45.4335" lon="2.50815">
        <ele>625</ele>
        <time>2021-10-07T17:12:13Z</time>
      </trkpt>
      <trkpt lat="45.43372" lon="2.50797">
        <ele>624</ele>
        <time>2021-10-07T17:12:46Z</time>
      </trkpt>
      <trkpt lat="45.43402" lon="2.5081">
        <ele>627</ele>
        <time>2021-10-07T17:13:28Z</time>
      </trkpt>
      <trkpt lat="45.43431" lon="2.50803">
        <ele>626</ele>
        <time>2021-10-07T17:14:08Z</time>
      </trkpt>
      <trkpt lat="45.43459" lon="2.50796">
        <ele>624</ele>
        <time>2021-10-07T17:14:45Z</time>
      </trkpt>
      <trkpt lat="45.43481" lon="2.50796">
        <ele>623</ele>
        <time>2021-10-07T17:15:15Z</time>
      </trkpt>
      <trkpt lat="45.43498" lon="2.50806">
        <ele>623</ele>
        <time>2021-10-07T17:15:39Z</time>
      </trkpt>
      <trkpt lat="45.43514" lon="2.5082">
        <ele>623</ele>
        <time>2021-10-07T17:16:04Z</time>
      </trkpt>
      <trkpt lat="45.4353" lon="2.50856">
        <ele>623</ele>
        <time>2021-10-07T17:16:44Z</time>
      </trkpt>
      <trkpt lat="45.43546" lon="2.50888">
        <ele>623</ele>
        <time>2021-10-07T17:17:21Z</time>
      </trkpt>
      <trkpt lat="45.43554" lon="2.50902">
        <ele>623</ele>
        <time>2021-10-07T17:17:38Z</time>
      </trkpt>
      <trkpt lat="45.43564" lon="2.50916">
        <ele>624</ele>
        <time>2021-10-07T17:17:57Z</time>
      </trkpt>
      <trkpt lat="45.43582" lon="2.50928">
        <ele>623</ele>
        <time>2021-10-07T17:18:23Z</time>
      </trkpt>
      <trkpt lat="45.43594" lon="2.50941">
        <ele>623</ele>
        <time>2021-10-07T17:18:43Z</time>
      </trkpt>
      <trkpt lat="45.43615" lon="2.50977">
        <ele>624</ele>
        <time>2021-10-07T17:19:27Z</time>
      </trkpt>
      <trkpt lat="45.43635" lon="2.51008">
        <ele>625</ele>
        <time>2021-10-07T17:20:07Z</time>
      </trkpt>
      <trkpt lat="45.43655" lon="2.51038">
        <ele>626</ele>
        <time>2021-10-07T17:20:45Z</time>
      </trkpt>
      <trkpt lat="45.43675" lon="2.51069">
        <ele>627</ele>
        <time>2021-10-07T17:21:25Z</time>
      </trkpt>
      <trkpt lat="45.43685" lon="2.51084">
        <ele>627</ele>
        <time>2021-10-07T17:21:44Z</time>
      </trkpt>
      <trkpt lat="45.43702" lon="2.51071">
        <ele>625</ele>
        <time>2021-10-07T17:22:10Z</time>
      </trkpt>
      <trkpt lat="45.43723" lon="2.51057">
        <ele>623</ele>
        <time>2021-10-07T17:22:41Z</time>
      </trkpt>
      <trkpt lat="45.43745" lon="2.51043">
        <ele>621</ele>
        <time>2021-10-07T17:23:13Z</time>
      </trkpt>
      <trkpt lat="45.43767" lon="2.51029">
        <ele>619</ele>
        <time>2021-10-07T17:23:45Z</time>
      </trkpt>
      <trkpt lat="45.43773" lon="2.51027">
        <ele>619</ele>
        <time>2021-10-07T17:23:53Z</time>
      </trkpt>
      <trkpt lat="45.43786" lon="2.51027">
        <ele>618</ele>
        <time>2021-10-07T17:24:11Z</time>
      </trkpt>
      <trkpt lat="45.438" lon="2.51029">
        <ele>617</ele>
        <time>2021-10-07T17:24:30Z</time>
      </trkpt>
      <trkpt lat="45.43816" lon="2.51031">
        <ele>616</ele>
        <time>2021-10-07T17:24:51Z</time>
      </trkpt>
      <trkpt lat="45.43815" lon="2.51037">
        <ele>616</ele>
        <time>2021-10-07T17:24:57Z</time>
      </trkpt>
      <trkpt lat="45.43811" lon="2.51124">
        <ele>614</ele>
        <time>2021-10-07T17:26:18Z</time>
      </trkpt>
      <trkpt lat="45.43802" lon="2.51175">
        <ele>614</ele>
        <time>2021-10-07T17:27:08Z</time>
      </trkpt>
      <trkpt lat="45.43802" lon="2.51194">
        <ele>615</ele>
        <time>2021-10-07T17:27:25Z</time>
      </trkpt>
      <trkpt lat="45.43808" lon="2.51209">
        <ele>615</ele>
        <time>2021-10-07T17:27:42Z</time>
      </trkpt>
      <trkpt lat="45.43818" lon="2.51228">
        <ele>614</ele>
        <time>2021-10-07T17:28:04Z</time>
      </trkpt>
      <trkpt lat="45.43828" lon="2.51263">
        <ele>613</ele>
        <time>2021-10-07T17:28:39Z</time>
      </trkpt>
      <trkpt lat="45.43826" lon="2.51309">
        <ele>610</ele>
        <time>2021-10-07T17:29:22Z</time>
      </trkpt>
      <trkpt lat="45.43816" lon="2.51349">
        <ele>610</ele>
        <time>2021-10-07T17:30:02Z</time>
      </trkpt>
      <trkpt lat="45.43806" lon="2.51389">
        <ele>610</ele>
        <time>2021-10-07T17:30:42Z</time>
      </trkpt>
      <trkpt lat="45.43802" lon="2.51443">
        <ele>610</ele>
        <time>2021-10-07T17:31:33Z</time>
      </trkpt>
      <trkpt lat="45.43803" lon="2.51462">
        <ele>611</ele>
        <time>2021-10-07T17:31:51Z</time>
      </trkpt>
      <trkpt lat="45.43808" lon="2.51481">
        <ele>611</ele>
        <time>2021-10-07T17:32:10Z</time>
      </trkpt>
      <trkpt lat="45.43818" lon="2.51499">
        <ele>610</ele>
        <time>2021-10-07T17:32:31Z</time>
      </trkpt>
      <trkpt lat="45.43834" lon="2.51522">
        <ele>609</ele>
        <time>2021-10-07T17:33:01Z</time>
      </trkpt>
      <trkpt lat="45.43848" lon="2.51549">
        <ele>608</ele>
        <time>2021-10-07T17:33:33Z</time>
      </trkpt>
      <trkpt lat="45.4386" lon="2.51547">
        <ele>606</ele>
        <time>2021-10-07T17:33:49Z</time>
      </trkpt>
      <trkpt lat="45.43874" lon="2.51546">
        <ele>603</ele>
        <time>2021-10-07T17:34:08Z</time>
      </trkpt>
      <trkpt lat="45.43887" lon="2.5152">
        <ele>600</ele>
        <time>2021-10-07T17:34:38Z</time>
      </trkpt>
      <trkpt lat="45.43896" lon="2.51502">
        <ele>597</ele>
        <time>2021-10-07T17:34:58Z</time>
      </trkpt>
      <trkpt lat="45.43912" lon="2.51507">
        <ele>595</ele>
        <time>2021-10-07T17:35:20Z</time>
      </trkpt>
      <trkpt lat="45.43922" lon="2.51501">
        <ele>593</ele>
        <time>2021-10-07T17:35:35Z</time>
      </trkpt>
      <trkpt lat="45.43925" lon="2.51485">
        <ele>590</ele>
        <time>2021-10-07T17:35:50Z</time>
      </trkpt>
      <trkpt lat="45.43926" lon="2.51456">
        <ele>587</ele>
        <time>2021-10-07T17:36:17Z</time>
      </trkpt>
      <trkpt lat="45.43928" lon="2.51422">
        <ele>583</ele>
        <time>2021-10-07T17:36:49Z</time>
      </trkpt>
      <trkpt lat="45.43925" lon="2.51403">
        <ele>582</ele>
        <time>2021-10-07T17:37:07Z</time>
      </trkpt>
      <trkpt lat="45.4391" lon="2.51359">
        <ele>584</ele>
        <time>2021-10-07T17:37:53Z</time>
      </trkpt>
      <trkpt lat="45.43909" lon="2.51328">
        <ele>584</ele>
        <time>2021-10-07T17:38:22Z</time>
      </trkpt>
      <trkpt lat="45.43908" lon="2.51306">
        <ele>584</ele>
        <time>2021-10-07T17:38:43Z</time>
      </trkpt>
      <trkpt lat="45.43913" lon="2.5128">
        <ele>584</ele>
        <time>2021-10-07T17:39:08Z</time>
      </trkpt>
      <trkpt lat="45.43919" lon="2.51255">
        <ele>582</ele>
        <time>2021-10-07T17:39:33Z</time>
      </trkpt>
      <trkpt lat="45.43926" lon="2.5123">
        <ele>581</ele>
        <time>2021-10-07T17:39:58Z</time>
      </trkpt>
      <trkpt lat="45.43935" lon="2.51206">
        <ele>580</ele>
        <time>2021-10-07T17:40:24Z</time>
      </trkpt>
      <trkpt lat="45.43937" lon="2.51194">
        <ele>581</ele>
        <time>2021-10-07T17:40:35Z</time>
      </trkpt>
      <trkpt lat="45.43947" lon="2.5118">
        <ele>579</ele>
        <time>2021-10-07T17:40:54Z</time>
      </trkpt>
      <trkpt lat="45.43958" lon="2.5116">
        <ele>577</ele>
        <time>2021-10-07T17:41:18Z</time>
      </trkpt>
      <trkpt lat="45.43972" lon="2.51142">
        <ele>575</ele>
        <time>2021-10-07T17:41:43Z</time>
      </trkpt>
      <trkpt lat="45.43987" lon="2.51124">
        <ele>572</ele>
        <time>2021-10-07T17:42:09Z</time>
      </trkpt>
      <trkpt lat="45.44002" lon="2.51106">
        <ele>568</ele>
        <time>2021-10-07T17:42:35Z</time>
      </trkpt>
      <trkpt lat="45.44017" lon="2.51091">
        <ele>564</ele>
        <time>2021-10-07T17:43:00Z</time>
      </trkpt>
      <trkpt lat="45.44034" lon="2.51076">
        <ele>559</ele>
        <time>2021-10-07T17:43:26Z</time>
      </trkpt>
      <trkpt lat="45.44042" lon="2.51068">
        <ele>557</ele>
        <time>2021-10-07T17:43:39Z</time>
      </trkpt>
      <trkpt lat="45.44051" lon="2.5108">
        <ele>554</ele>
        <time>2021-10-07T17:43:56Z</time>
      </trkpt>
      <trkpt lat="45.44059" lon="2.51105">
        <ele>551</ele>
        <time>2021-10-07T17:44:21Z</time>
      </trkpt>
      <trkpt lat="45.44065" lon="2.51124">
        <ele>549</ele>
        <time>2021-10-07T17:44:41Z</time>
      </trkpt>
      <trkpt lat="45.44063" lon="2.51138">
        <ele>550</ele>
        <time>2021-10-07T17:44:54Z</time>
      </trkpt>
      <trkpt lat="45.44056" lon="2.51159">
        <ele>551</ele>
        <time>2021-10-07T17:45:16Z</time>
      </trkpt>
      <trkpt lat="45.44048" lon="2.51178">
        <ele>553</ele>
        <time>2021-10-07T17:45:37Z</time>
      </trkpt>
      <trkpt lat="45.44043" lon="2.51196">
        <ele>554</ele>
        <time>2021-10-07T17:45:55Z</time>
      </trkpt>
      <trkpt lat="45.44048" lon="2.5121">
        <ele>553</ele>
        <time>2021-10-07T17:46:10Z</time>
      </trkpt>
      <trkpt lat="45.44056" lon="2.51232">
        <ele>552</ele>
        <time>2021-10-07T17:46:33Z</time>
      </trkpt>
      <trkpt lat="45.44074" lon="2.5125">
        <ele>551</ele>
        <time>2021-10-07T17:47:02Z</time>
      </trkpt>
      <trkpt lat="45.44088" lon="2.51254">
        <ele>551</ele>
        <time>2021-10-07T17:47:21Z</time>
      </trkpt>
      <trkpt lat="45.44108" lon="2.51258">
        <ele>554</ele>
        <time>2021-10-07T17:47:48Z</time>
      </trkpt>
      <trkpt lat="45.4412" lon="2.51259">
        <ele>556</ele>
        <time>2021-10-07T17:48:04Z</time>
      </trkpt>
      <trkpt lat="45.44131" lon="2.51257">
        <ele>557</ele>
        <time>2021-10-07T17:48:19Z</time>
      </trkpt>
      <trkpt lat="45.44143" lon="2.51251">
        <ele>557</ele>
        <time>2021-10-07T17:48:36Z</time>
      </trkpt>
      <trkpt lat="45.4415" lon="2.51245">
        <ele>557</ele>
        <time>2021-10-07T17:48:47Z</time>
      </trkpt>
      <trkpt lat="45.44156" lon="2.51231">
        <ele>557</ele>
        <time>2021-10-07T17:49:02Z</time>
      </trkpt>
      <trkpt lat="45.4416" lon="2.51214">
        <ele>555</ele>
        <time>2021-10-07T17:49:19Z</time>
      </trkpt>
      <trkpt lat="45.44162" lon="2.51194">
        <ele>553</ele>
        <time>2021-10-07T17:49:38Z</time>
      </trkpt>
      <trkpt lat="45.4416" lon="2.51165">
        <ele>550</ele>
        <time>2021-10-07T17:50:05Z</time>
      </trkpt>
      <trkpt lat="45.44159" lon="2.51135">
        <ele>551</ele>
        <time>2021-10-07T17:50:33Z</time>
      </trkpt>
      <trkpt lat="45.44161" lon="2.51115">
        <ele>552</ele>
        <time>2021-10-07T17:50:52Z</time>
      </trkpt>
      <trkpt lat="45.44165" lon="2.51096">
        <ele>553</ele>
        <time>2021-10-07T17:51:11Z</time>
      </trkpt>
      <trkpt lat="45.44166" lon="2.51078">
        <ele>554</ele>
        <time>2021-10-07T17:51:28Z</time>
      </trkpt>
      <trkpt lat="45.44164" lon="2.51046">
        <ele>553</ele>
        <time>2021-10-07T17:51:58Z</time>
      </trkpt>
      <trkpt lat="45.44164" lon="2.5103">
        <ele>553</ele>
        <time>2021-10-07T17:52:13Z</time>
      </trkpt>
      <trkpt lat="45.44166" lon="2.51005">
        <ele>553</ele>
        <time>2021-10-07T17:52:36Z</time>
      </trkpt>
      <trkpt lat="45.44169" lon="2.50988">
        <ele>553</ele>
        <time>2021-10-07T17:52:53Z</time>
      </trkpt>
      <trkpt lat="45.44172" lon="2.50972">
        <ele>553</ele>
        <time>2021-10-07T17:53:08Z</time>
      </trkpt>
      <trkpt lat="45.44183" lon="2.50926">
        <ele>555</ele>
        <time>2021-10-07T17:53:54Z</time>
      </trkpt>
      <trkpt lat="45.44191" lon="2.50883">
        <ele>552</ele>
        <time>2021-10-07T17:54:36Z</time>
      </trkpt>
      <trkpt lat="45.44196" lon="2.50858">
        <ele>551</ele>
        <time>2021-10-07T17:55:00Z</time>
      </trkpt>
      <trkpt lat="45.44201" lon="2.50833">
        <ele>548</ele>
        <time>2021-10-07T17:55:24Z</time>
      </trkpt>
      <trkpt lat="45.44207" lon="2.50815">
        <ele>547</ele>
        <time>2021-10-07T17:55:43Z</time>
      </trkpt>
      <trkpt lat="45.44221" lon="2.50798">
        <ele>548</ele>
        <time>2021-10-07T17:56:07Z</time>
      </trkpt>
      <trkpt lat="45.44242" lon="2.50776">
        <ele>549</ele>
        <time>2021-10-07T17:56:42Z</time>
      </trkpt>
      <trkpt lat="45.44253" lon="2.50764">
        <ele>549</ele>
        <time>2021-10-07T17:57:01Z</time>
      </trkpt>
      <trkpt lat="45.4428" lon="2.5074">
        <ele>548</ele>
        <time>2021-10-07T17:57:43Z</time>
      </trkpt>
      <trkpt lat="45.44301" lon="2.50722">
        <ele>548</ele>
        <time>2021-10-07T17:58:16Z</time>
      </trkpt>
      <trkpt lat="45.44318" lon="2.50709">
        <ele>547</ele>
        <time>2021-10-07T17:58:42Z</time>
      </trkpt>
      <trkpt lat="45.44333" lon="2.50694">
        <ele>546</ele>
        <time>2021-10-07T17:59:06Z</time>
      </trkpt>
      <trkpt lat="45.44337" lon="2.50685">
        <ele>544</ele>
        <time>2021-10-07T17:59:16Z</time>
      </trkpt>
    </trkseg>
  </trk>
</gpx>